Impacts TAF Board
For situational awareness. Not to be used for flight planning purposes.
IDs:

KGUP - Gallup Muni, NM, US

Issued at 1738 UTC 02 Aug 2021
Updated at 2049 UTC 02 Aug 2021
Potential Impact None Slight Moderate High
Time2037Z 02/21Z 02/22Z 02/23Z 03/00Z 03/01Z 03/02Z 03/03Z 03/04Z 03/05Z 03/06Z 03/07Z 03/08Z 03/09Z>>
Type OBS PRVL
  [TEMP]  
PRVL
  [TEMP]  
PRVL PRVL PRVL PRVL PRVL PRVL PRVL PRVL PRVL PRVL PRVL
VIS 1.75 >6
  [5]  
>6
  [5]  
>6 >6 >6 >6 >6 >6 >6 >6 >6 >6 >6
CIG 60 --
  [70]  
--
  [70]  
-- -- -- -- -- -- -- -- -- -- --
Cover OVC SCT
  [BKN]  
SCT
  [BKN]  
SCT SCT SCT SCT SCT SCT SCT SCT SCT SCT SCT
FltCat IFR VFR
  [MVFR]  
VFR
  [MVFR]  
VFR VFR VFR VFR VFR VFR VFR VFR VFR VFR VFR
WX +TSRA VCSH
  [TSRA]  
VCSH
  [TSRA]  
VCSH VCSH VCSH VCSH -- -- -- -- -- -- --
WDir 340 340
[340]
340
[340]
340 340 340 340 VRB VRB VRB VRB VRB VRB VRB
WSpd 7 6
  [6]  
6
  [6]  
6 6 6 6 4 4 4 4 4 4 4
WGst -- --
  [--]  
--
  [--]  
-- -- -- -- -- -- -- -- -- -- --
Raw TAF
KGUP 021738Z 0218/0318 VRB05KT P6SM SCT100
  FM022000 34006KT P6SM VCSH SCT090
  TEMPO 0220/0223 5SM TSRA BKN070CB
  FM030300 VRB04KT P6SM SCT100


Raw METAR
KGUP 022037Z AUTO 34007KT 1 3/4SM +TSRA SCT037 BKN060 OVC080 19/14 A3036 RMK AO2 PK WND 30034/2021 WSHFT 2017 LTG DSNT N AND NE RAB19 TSB05 P0027 T01940144
KGUP 022023Z AUTO 30024G34KT 1 1/2SM +TSRA FEW020 BKN070 OVC090 21/16 A3036 RMK AO2 PK WND 30034/2021 LTG DSNT N AND S RAB19 TSB05 P0009 T02060156
KGUP 022011Z AUTO 08005G15KT 10SM TS BKN075 BKN090 27/11 A3034 RMK AO2 TSB05 T02670111
KGUP 021953Z AUTO 10SM SCT070 28/11 A3035 RMK AO2 LTG DSNT N AND NW SLP101 T02780111
KGUP 021853Z AUTO 24005KT 10SM SCT055 27/12 A3038 RMK AO2 LTG DSNT SE AND NW SLP109 T02670122
KGUP 021753Z AUTO VRB03KT 10SM FEW045 24/13 A3040 RMK AO2 LTG DSNT SE SLP132 60000 T02440128 10261 20167 58010

METAR Board
Radar Display
Forecast Discussion
For situational awareness. Not to be used for flight planning purposes.